THY6805 LTCA-LTAC
Flight info
| Callsign | THY6805 |
|---|---|
| Flight time | 1h 0m |
| Altitude | 34000 |
| Route | LTCA/25R N0451F340 BULU1C BULUT UL614 GOBIT GOBI1P LTAC/21L |
| Aircraft | A321/M-CDT/C |
Departure
| Time | 2026-05-05 15:03 |
|---|---|
| Airport | Elazığ Airport (LTCA) |
Arrival
| Time | 2026-05-05 16:03 |
|---|---|
| Airport | Esenboğa International Airport (LTAC) |
| Time | Latitude | Longitude | Altitude | Speed | Heading |
|---|---|---|---|---|---|
| 2026-05-05 14:49 | 38.60550 | 39.29677 | 2911 ft | 0 kts | 360° |
| 2026-05-05 14:59 | 38.60552 | 39.29677 | 2911 ft | 1 kts | 359° |
| 2026-05-05 15:00 | 38.60566 | 39.29670 | 2911 ft | 3 kts | 326° |
| 2026-05-05 15:00 | 38.60570 | 39.29653 | 2911 ft | 3 kts | 274° |
| 2026-05-05 15:00 | 38.60539 | 39.29632 | 2911 ft | 5 kts | 190° |
| 2026-05-05 15:00 | 38.60493 | 39.29621 | 2912 ft | 8 kts | 190° |
| 2026-05-05 15:01 | 38.60428 | 39.29606 | 2913 ft | 11 kts | 191° |
| 2026-05-05 15:01 | 38.60348 | 39.29648 | 2911 ft | 15 kts | 144° |
| 2026-05-05 15:01 | 38.60264 | 39.29742 | 2911 ft | 17 kts | 135° |
| 2026-05-05 15:01 | 38.60185 | 39.29857 | 2909 ft | 15 kts | 133° |
| 2026-05-05 15:02 | 38.60114 | 39.29889 | 2907 ft | 11 kts | 223° |
| 2026-05-05 15:02 | 38.60074 | 39.29735 | 2894 ft | 21 kts | 258° |
| 2026-05-05 15:02 | 38.60036 | 39.29533 | 2897 ft | 32 kts | 256° |
| 2026-05-05 15:02 | 38.59926 | 39.28960 | 2903 ft | 99 kts | 255° |
| 2026-05-05 15:03 | 38.59711 | 39.27863 | 2912 ft | 154 kts | 256° |
| 2026-05-05 15:03 | 38.59537 | 39.26911 | 3102 ft | 167 kts | 258° |
| 2026-05-05 15:03 | 38.59124 | 39.24964 | 3908 ft | 178 kts | 253° |
| 2026-05-05 15:03 | 38.58876 | 39.23933 | 4223 ft | 188 kts | 251° |
| 2026-05-05 15:04 | 38.58476 | 39.22324 | 4636 ft | 187 kts | 249° |
| 2026-05-05 15:04 | 38.58083 | 39.20776 | 5014 ft | 185 kts | 250° |
| 2026-05-05 15:04 | 38.58051 | 39.19125 | 5375 ft | 190 kts | 292° |
| 2026-05-05 15:04 | 38.58951 | 39.17925 | 5767 ft | 192 kts | 336° |
| 2026-05-05 15:05 | 38.61595 | 39.18330 | 6558 ft | 212 kts | 20° |
| 2026-05-05 15:05 | 38.63053 | 39.18980 | 6952 ft | 231 kts | 21° |
| 2026-05-05 15:05 | 38.64639 | 39.19691 | 7309 ft | 253 kts | 20° |
| 2026-05-05 15:06 | 38.66395 | 39.20477 | 7767 ft | 278 kts | 20° |
| 2026-05-05 15:06 | 38.68248 | 39.21298 | 8333 ft | 285 kts | 20° |
| 2026-05-05 15:06 | 38.70136 | 39.22124 | 8903 ft | 289 kts | 19° |
| 2026-05-05 15:06 | 38.72114 | 39.22599 | 9485 ft | 293 kts | 355° |
| 2026-05-05 15:07 | 38.74025 | 39.21756 | 10050 ft | 294 kts | 322° |
| 2026-05-05 15:07 | 38.75308 | 39.19756 | 10591 ft | 297 kts | 290° |
| 2026-05-05 15:07 | 38.75592 | 39.17139 | 11145 ft | 303 kts | 259° |
| 2026-05-05 15:07 | 38.74840 | 39.14574 | 11573 ft | 317 kts | 237° |
| 2026-05-05 15:08 | 38.73542 | 39.12207 | 11960 ft | 333 kts | 234° |
| 2026-05-05 15:08 | 38.72629 | 39.09422 | 12345 ft | 351 kts | 258° |
| 2026-05-05 15:08 | 38.72533 | 39.06225 | 12739 ft | 369 kts | 274° |
| 2026-05-05 15:08 | 38.72973 | 39.02922 | 13145 ft | 384 kts | 282° |
| 2026-05-05 15:09 | 38.73681 | 38.99559 | 13544 ft | 398 kts | 285° |
| 2026-05-05 15:09 | 38.74466 | 38.96100 | 13924 ft | 411 kts | 284° |
| 2026-05-05 15:09 | 38.75217 | 38.92521 | 14398 ft | 419 kts | 282° |
| 2026-05-05 15:09 | 38.75882 | 38.88878 | 15118 ft | 420 kts | 281° |
| 2026-05-05 15:10 | 38.76472 | 38.85207 | 15804 ft | 423 kts | 279° |
| 2026-05-05 15:10 | 38.77022 | 38.81486 | 16452 ft | 426 kts | 278° |
| 2026-05-05 15:10 | 38.77553 | 38.77735 | 17114 ft | 429 kts | 278° |
| 2026-05-05 15:10 | 38.78086 | 38.73967 | 17789 ft | 431 kts | 278° |
| 2026-05-05 15:11 | 38.78633 | 38.70177 | 18434 ft | 434 kts | 278° |
| 2026-05-05 15:11 | 38.79190 | 38.66376 | 19033 ft | 436 kts | 278° |
| 2026-05-05 15:11 | 38.79757 | 38.62545 | 19591 ft | 439 kts | 278° |
| 2026-05-05 15:11 | 38.80330 | 38.58687 | 20173 ft | 441 kts | 278° |
| 2026-05-05 15:12 | 38.80915 | 38.54770 | 20762 ft | 443 kts | 278° |
| 2026-05-05 15:12 | 38.81497 | 38.50886 | 21320 ft | 444 kts | 278° |
| 2026-05-05 15:12 | 38.82077 | 38.47001 | 21876 ft | 444 kts | 278° |
| 2026-05-05 15:12 | 38.82653 | 38.43112 | 22446 ft | 443 kts | 278° |
| 2026-05-05 15:13 | 38.83224 | 38.39230 | 23024 ft | 442 kts | 278° |
| 2026-05-05 15:13 | 38.83791 | 38.35343 | 23484 ft | 445 kts | 278° |
| 2026-05-05 15:13 | 38.84359 | 38.31432 | 23841 ft | 447 kts | 278° |
| 2026-05-05 15:13 | 38.84928 | 38.27506 | 24199 ft | 449 kts | 278° |
| 2026-05-05 15:14 | 38.85503 | 38.23555 | 24565 ft | 451 kts | 278° |
| 2026-05-05 15:14 | 38.86082 | 38.19588 | 24936 ft | 453 kts | 278° |
| 2026-05-05 15:14 | 38.86664 | 38.15609 | 25313 ft | 454 kts | 278° |
| 2026-05-05 15:14 | 38.87242 | 38.11638 | 25851 ft | 451 kts | 277° |
| 2026-05-05 15:15 | 38.87811 | 38.07692 | 26413 ft | 448 kts | 277° |
| 2026-05-05 15:15 | 38.88374 | 38.03770 | 26990 ft | 445 kts | 277° |
| 2026-05-05 15:15 | 38.88932 | 37.99882 | 27582 ft | 441 kts | 277° |
| 2026-05-05 15:15 | 38.89483 | 37.96023 | 28181 ft | 438 kts | 277° |
| 2026-05-05 15:16 | 38.90029 | 37.92194 | 28734 ft | 436 kts | 277° |
| 2026-05-05 15:16 | 38.90574 | 37.88349 | 29022 ft | 440 kts | 277° |
| 2026-05-05 15:16 | 38.91122 | 37.84479 | 29318 ft | 443 kts | 277° |
| 2026-05-05 15:16 | 38.91675 | 37.80575 | 29609 ft | 446 kts | 277° |
| 2026-05-05 15:17 | 38.92228 | 37.76653 | 29947 ft | 447 kts | 277° |
| 2026-05-05 15:17 | 38.92781 | 37.72727 | 30244 ft | 448 kts | 277° |
| 2026-05-05 15:17 | 38.93334 | 37.68778 | 30538 ft | 449 kts | 277° |
| 2026-05-05 15:17 | 38.93889 | 37.64825 | 30833 ft | 450 kts | 277° |
| 2026-05-05 15:18 | 38.94443 | 37.60863 | 31158 ft | 451 kts | 277° |
| 2026-05-05 15:18 | 38.94995 | 37.56906 | 31503 ft | 450 kts | 278° |
| 2026-05-05 15:18 | 38.95547 | 37.52953 | 31860 ft | 449 kts | 278° |
| 2026-05-05 15:18 | 38.96097 | 37.49006 | 32219 ft | 448 kts | 278° |
| 2026-05-05 15:19 | 38.96644 | 37.45064 | 32583 ft | 447 kts | 278° |
| 2026-05-05 15:19 | 38.97187 | 37.41136 | 32950 ft | 446 kts | 278° |
| 2026-05-05 15:19 | 38.97733 | 37.37169 | 33327 ft | 444 kts | 278° |
| 2026-05-05 15:19 | 38.98264 | 37.33279 | 33710 ft | 442 kts | 278° |
| 2026-05-05 15:20 | 38.98793 | 37.29386 | 33922 ft | 444 kts | 279° |
| 2026-05-05 15:20 | 38.99869 | 37.21481 | 33954 ft | 450 kts | 279° |
| 2026-05-05 15:21 | 39.00944 | 37.13584 | 33968 ft | 447 kts | 279° |
| 2026-05-05 15:21 | 39.02016 | 37.05711 | 33972 ft | 449 kts | 279° |
| 2026-05-05 15:22 | 39.03079 | 36.97776 | 33970 ft | 451 kts | 279° |
| 2026-05-05 15:22 | 39.04133 | 36.89833 | 33979 ft | 451 kts | 279° |
| 2026-05-05 15:23 | 39.05193 | 36.81889 | 33986 ft | 451 kts | 279° |
| 2026-05-05 15:23 | 39.06244 | 36.73961 | 33985 ft | 448 kts | 279° |
| 2026-05-05 15:24 | 39.07280 | 36.66077 | 33964 ft | 445 kts | 279° |
| 2026-05-05 15:24 | 39.08302 | 36.58243 | 33949 ft | 442 kts | 279° |
| 2026-05-05 15:25 | 39.09312 | 36.50456 | 33946 ft | 439 kts | 279° |
| 2026-05-05 15:25 | 39.10309 | 36.42740 | 33983 ft | 435 kts | 279° |
| 2026-05-05 15:26 | 39.11297 | 36.35090 | 33980 ft | 432 kts | 279° |
| 2026-05-05 15:26 | 39.12270 | 36.27492 | 33981 ft | 429 kts | 279° |
| 2026-05-05 15:27 | 39.13238 | 36.19884 | 33979 ft | 427 kts | 280° |
| 2026-05-05 15:27 | 39.14191 | 36.12356 | 33979 ft | 425 kts | 280° |
| 2026-05-05 15:28 | 39.15146 | 36.04803 | 33974 ft | 433 kts | 282° |
| 2026-05-05 15:28 | 39.17021 | 35.97337 | 33975 ft | 444 kts | 291° |
| 2026-05-05 15:29 | 39.19243 | 35.89879 | 33972 ft | 446 kts | 291° |
| 2026-05-05 15:29 | 39.21452 | 35.82409 | 33971 ft | 446 kts | 291° |
| 2026-05-05 15:30 | 39.23654 | 35.74931 | 33966 ft | 446 kts | 292° |
| 2026-05-05 15:30 | 39.25855 | 35.67448 | 33968 ft | 446 kts | 291° |
| 2026-05-05 15:31 | 39.28045 | 35.59968 | 33974 ft | 446 kts | 292° |
| 2026-05-05 15:31 | 39.30234 | 35.52480 | 33977 ft | 445 kts | 292° |
| 2026-05-05 15:32 | 39.32420 | 35.44996 | 33977 ft | 445 kts | 292° |
| 2026-05-05 15:32 | 39.34602 | 35.37512 | 33984 ft | 445 kts | 292° |
| 2026-05-05 15:33 | 39.36778 | 35.30018 | 33987 ft | 445 kts | 292° |
| 2026-05-05 15:33 | 39.38949 | 35.22534 | 33986 ft | 445 kts | 292° |
| 2026-05-05 15:34 | 39.41115 | 35.15047 | 33985 ft | 444 kts | 292° |
| 2026-05-05 15:34 | 39.43311 | 35.07588 | 33985 ft | 444 kts | 292° |
| 2026-05-05 15:35 | 39.45534 | 35.00101 | 33971 ft | 442 kts | 292° |
| 2026-05-05 15:35 | 39.47724 | 34.92676 | 33970 ft | 442 kts | 292° |
| 2026-05-05 15:36 | 39.49535 | 34.86501 | 33965 ft | 441 kts | 292° |
| 2026-05-05 15:36 | 39.51705 | 34.79074 | 33720 ft | 442 kts | 293° |
| 2026-05-05 15:36 | 39.52782 | 34.75360 | 33291 ft | 437 kts | 293° |
| 2026-05-05 15:37 | 39.53845 | 34.71692 | 32819 ft | 433 kts | 293° |
| 2026-05-05 15:37 | 39.54899 | 34.68058 | 32347 ft | 430 kts | 293° |
| 2026-05-05 15:37 | 39.55948 | 34.64443 | 31873 ft | 425 kts | 294° |
| 2026-05-05 15:37 | 39.56981 | 34.60872 | 31511 ft | 423 kts | 294° |
| 2026-05-05 15:38 | 39.58012 | 34.57309 | 31135 ft | 421 kts | 294° |
| 2026-05-05 15:38 | 39.59035 | 34.53773 | 30766 ft | 417 kts | 294° |
| 2026-05-05 15:38 | 39.60050 | 34.50271 | 30397 ft | 413 kts | 294° |
| 2026-05-05 15:38 | 39.61054 | 34.46798 | 30030 ft | 409 kts | 294° |
| 2026-05-05 15:39 | 39.62043 | 34.43365 | 29592 ft | 405 kts | 294° |
| 2026-05-05 15:39 | 39.63025 | 34.39951 | 29151 ft | 402 kts | 294° |
| 2026-05-05 15:39 | 39.63998 | 34.36560 | 28733 ft | 400 kts | 294° |
| 2026-05-05 15:39 | 39.64966 | 34.33184 | 28318 ft | 398 kts | 294° |
| 2026-05-05 15:40 | 39.65926 | 34.29827 | 27910 ft | 396 kts | 294° |
| 2026-05-05 15:40 | 39.66896 | 34.26438 | 27494 ft | 394 kts | 294° |
| 2026-05-05 15:40 | 39.67851 | 34.23110 | 27096 ft | 393 kts | 294° |
| 2026-05-05 15:40 | 39.68799 | 34.19798 | 26703 ft | 391 kts | 294° |
| 2026-05-05 15:41 | 39.69741 | 34.16493 | 26305 ft | 389 kts | 294° |
| 2026-05-05 15:41 | 39.70678 | 34.13201 | 25926 ft | 388 kts | 294° |
| 2026-05-05 15:41 | 39.71609 | 34.09925 | 25553 ft | 386 kts | 294° |
| 2026-05-05 15:41 | 39.72538 | 34.06654 | 25181 ft | 385 kts | 294° |
| 2026-05-05 15:42 | 39.73460 | 34.03402 | 24833 ft | 383 kts | 294° |
| 2026-05-05 15:42 | 39.74378 | 34.00157 | 24489 ft | 382 kts | 294° |
| 2026-05-05 15:42 | 39.75291 | 33.96926 | 24156 ft | 381 kts | 294° |
| 2026-05-05 15:42 | 39.76202 | 33.93706 | 23826 ft | 379 kts | 293° |
| 2026-05-05 15:43 | 39.77068 | 33.90472 | 23482 ft | 379 kts | 289° |
| 2026-05-05 15:43 | 39.77552 | 33.87099 | 23096 ft | 381 kts | 278° |
| 2026-05-05 15:43 | 39.77606 | 33.83647 | 22703 ft | 382 kts | 273° |
| 2026-05-05 15:43 | 39.77587 | 33.80202 | 22321 ft | 380 kts | 273° |
| 2026-05-05 15:44 | 39.77573 | 33.76775 | 21945 ft | 378 kts | 273° |
| 2026-05-05 15:44 | 39.77561 | 33.73369 | 21570 ft | 376 kts | 273° |
| 2026-05-05 15:44 | 39.77548 | 33.69985 | 21203 ft | 374 kts | 273° |
| 2026-05-05 15:44 | 39.77534 | 33.66622 | 20839 ft | 369 kts | 272° |
| 2026-05-05 15:45 | 39.77517 | 33.63318 | 20500 ft | 363 kts | 272° |
| 2026-05-05 15:45 | 39.77500 | 33.60060 | 20170 ft | 357 kts | 272° |
| 2026-05-05 15:45 | 39.77539 | 33.56860 | 19842 ft | 351 kts | 278° |
| 2026-05-05 15:45 | 39.77977 | 33.53768 | 19526 ft | 346 kts | 289° |
| 2026-05-05 15:46 | 39.78843 | 33.50873 | 19206 ft | 342 kts | 299° |
| 2026-05-05 15:46 | 39.80085 | 33.48258 | 18889 ft | 339 kts | 308° |
| 2026-05-05 15:46 | 39.81499 | 33.45802 | 18576 ft | 339 kts | 308° |
| 2026-05-05 15:46 | 39.82901 | 33.43350 | 18272 ft | 337 kts | 308° |
| 2026-05-05 15:47 | 39.84294 | 33.40897 | 17920 ft | 336 kts | 307° |
| 2026-05-05 15:47 | 39.85229 | 33.39248 | 17680 ft | 335 kts | 307° |
| 2026-05-05 15:47 | 39.87077 | 33.35990 | 17204 ft | 333 kts | 307° |
| 2026-05-05 15:47 | 39.88444 | 33.33585 | 16883 ft | 327 kts | 307° |
| 2026-05-05 15:48 | 39.89779 | 33.31227 | 16621 ft | 320 kts | 307° |
| 2026-05-05 15:48 | 39.90204 | 33.30475 | 16535 ft | 317 kts | 307° |
| 2026-05-05 15:48 | 39.90993 | 33.29062 | 16377 ft | 313 kts | 306° |
| 2026-05-05 15:48 | 39.92257 | 33.26785 | 16117 ft | 307 kts | 307° |
| 2026-05-05 15:49 | 39.93509 | 33.24566 | 15845 ft | 301 kts | 307° |
| 2026-05-05 15:49 | 39.94745 | 33.22388 | 15567 ft | 297 kts | 308° |
| 2026-05-05 15:49 | 39.95964 | 33.20245 | 15301 ft | 291 kts | 308° |
| 2026-05-05 15:49 | 39.97159 | 33.18144 | 15052 ft | 286 kts | 308° |
| 2026-05-05 15:50 | 39.98334 | 33.16077 | 14807 ft | 281 kts | 308° |
| 2026-05-05 15:50 | 39.99487 | 33.14040 | 14561 ft | 277 kts | 308° |
| 2026-05-05 15:50 | 40.00617 | 33.12038 | 14316 ft | 272 kts | 308° |
| 2026-05-05 15:50 | 40.01869 | 33.10232 | 14065 ft | 265 kts | 326° |
| 2026-05-05 15:51 | 40.03515 | 33.09248 | 13842 ft | 260 kts | 350° |
| 2026-05-05 15:51 | 40.05310 | 33.09239 | 13577 ft | 260 kts | 13° |
| 2026-05-05 15:51 | 40.06947 | 33.10199 | 13304 ft | 260 kts | 35° |
| 2026-05-05 15:51 | 40.08410 | 33.11610 | 13046 ft | 262 kts | 36° |
| 2026-05-05 15:52 | 40.09872 | 33.13018 | 12778 ft | 261 kts | 35° |
| 2026-05-05 15:52 | 40.11334 | 33.14421 | 12515 ft | 260 kts | 35° |
| 2026-05-05 15:52 | 40.12794 | 33.15816 | 12254 ft | 260 kts | 35° |
| 2026-05-05 15:52 | 40.14249 | 33.17207 | 11998 ft | 259 kts | 35° |
| 2026-05-05 15:53 | 40.15704 | 33.18598 | 11736 ft | 259 kts | 35° |
| 2026-05-05 15:53 | 40.17154 | 33.19986 | 11477 ft | 258 kts | 35° |
| 2026-05-05 15:53 | 40.18599 | 33.21371 | 11231 ft | 257 kts | 35° |
| 2026-05-05 15:53 | 40.20043 | 33.22755 | 10974 ft | 257 kts | 35° |
| 2026-05-05 15:54 | 40.21479 | 33.24133 | 10760 ft | 256 kts | 35° |
| 2026-05-05 15:54 | 40.22914 | 33.25507 | 10507 ft | 255 kts | 35° |
| 2026-05-05 15:54 | 40.24332 | 33.26869 | 10256 ft | 250 kts | 35° |
| 2026-05-05 15:54 | 40.25716 | 33.28202 | 10005 ft | 244 kts | 35° |
| 2026-05-05 15:55 | 40.27070 | 33.29503 | 9748 ft | 239 kts | 35° |
| 2026-05-05 15:55 | 40.28395 | 33.30776 | 9479 ft | 233 kts | 35° |
| 2026-05-05 15:55 | 40.29707 | 33.32039 | 9201 ft | 229 kts | 35° |
| 2026-05-05 15:55 | 40.31027 | 33.33187 | 8941 ft | 226 kts | 22° |
| 2026-05-05 15:56 | 40.32541 | 33.33605 | 8666 ft | 223 kts | 357° |
| 2026-05-05 15:56 | 40.34029 | 33.33130 | 8428 ft | 221 kts | 332° |
| 2026-05-05 15:56 | 40.35219 | 33.31891 | 8167 ft | 220 kts | 308° |
| 2026-05-05 15:56 | 40.35910 | 33.30118 | 7908 ft | 220 kts | 284° |
| 2026-05-05 15:57 | 40.35974 | 33.28132 | 7670 ft | 220 kts | 260° |
| 2026-05-05 15:57 | 40.35395 | 33.26280 | 7441 ft | 222 kts | 235° |
| 2026-05-05 15:57 | 40.34270 | 33.24910 | 7214 ft | 224 kts | 210° |
| 2026-05-05 15:57 | 40.32840 | 33.24104 | 7027 ft | 224 kts | 203° |
| 2026-05-05 15:58 | 40.31409 | 33.23288 | 6820 ft | 224 kts | 210° |
| 2026-05-05 15:58 | 40.30113 | 33.22177 | 6630 ft | 222 kts | 220° |
| 2026-05-05 15:58 | 40.28994 | 33.20792 | 6493 ft | 221 kts | 230° |
| 2026-05-05 15:58 | 40.28091 | 33.19205 | 6335 ft | 213 kts | 240° |
| 2026-05-05 15:59 | 40.27363 | 33.17574 | 6172 ft | 202 kts | 241° |
| 2026-05-05 15:59 | 40.26675 | 33.16039 | 6010 ft | 189 kts | 241° |
| 2026-05-05 15:59 | 40.26036 | 33.14619 | 5830 ft | 172 kts | 241° |
| 2026-05-05 15:59 | 40.25450 | 33.13318 | 5674 ft | 162 kts | 242° |
| 2026-05-05 16:00 | 40.24885 | 33.12060 | 5472 ft | 159 kts | 241° |
| 2026-05-05 16:00 | 40.24317 | 33.10833 | 5264 ft | 157 kts | 236° |
| 2026-05-05 16:00 | 40.23520 | 33.09855 | 5051 ft | 158 kts | 217° |
| 2026-05-05 16:00 | 40.22632 | 33.09015 | 4816 ft | 157 kts | 218° |
| 2026-05-05 16:01 | 40.21756 | 33.08180 | 4569 ft | 155 kts | 218° |
| 2026-05-05 16:01 | 40.20883 | 33.07349 | 4319 ft | 154 kts | 218° |
| 2026-05-05 16:01 | 40.20018 | 33.06525 | 4080 ft | 153 kts | 218° |
| 2026-05-05 16:01 | 40.19163 | 33.05711 | 3856 ft | 152 kts | 218° |
| 2026-05-05 16:02 | 40.18309 | 33.04898 | 3726 ft | 151 kts | 218° |
| 2026-05-05 16:02 | 40.17491 | 33.04120 | 3594 ft | 149 kts | 218° |
| 2026-05-05 16:02 | 40.16647 | 33.03317 | 3474 ft | 149 kts | 218° |
| 2026-05-05 16:02 | 40.15811 | 33.02521 | 3370 ft | 149 kts | 218° |
| 2026-05-05 16:03 | 40.14973 | 33.01724 | 3219 ft | 148 kts | 217° |
| 2026-05-05 16:03 | 40.14146 | 33.00934 | 3137 ft | 147 kts | 217° |
| 2026-05-05 16:03 | 40.13618 | 33.00417 | 3131 ft | 26 kts | 212° |
| 2026-05-05 16:03 | 40.13490 | 33.00308 | 3128 ft | 22 kts | 215° |
| 2026-05-05 16:04 | 40.13427 | 33.00254 | 3127 ft | 9 kts | 204° |
| 2026-05-05 16:04 | 40.13363 | 33.00278 | 3129 ft | 11 kts | 136° |
| 2026-05-05 16:04 | 40.13293 | 33.00343 | 3129 ft | 14 kts | 163° |
| 2026-05-05 16:04 | 40.13191 | 33.00335 | 3124 ft | 16 kts | 189° |
| 2026-05-05 16:05 | 40.13077 | 33.00317 | 3123 ft | 16 kts | 190° |
| 2026-05-05 16:05 | 40.12977 | 33.00264 | 3125 ft | 13 kts | 216° |
| 2026-05-05 16:05 | 40.12910 | 33.00216 | 3125 ft | 8 kts | 179° |
| 2026-05-05 16:05 | 40.12879 | 33.00255 | 3125 ft | 2 kts | 127° |
| 2026-05-05 16:06 | 40.12877 | 33.00258 | 3124 ft | 0 kts | 127° |